• Join FlightAware (Why Join?)
  • Login
  • US Flag 
01:49PM EDT


 

Airport Tracker/Info


-or-


 

Live Flight TrackerFlight Track Log ✈ FLG3735 ✈ 18-Aug-2013 ✈ KDTW - KALB

Flight Track Log - Related Links

Times and Time Zones

All times are in EDT time to prevent confusion due to time zone crossing. See the FLG3735 flight status page for this flight to view local times or setup timezone preferences in your user account.

Time Position Orientation Groundspeed Altitude Reporting Facility
EDT Latitude Longitude Course Direction KTS MPH feet Rate Location/Type
10:26PM 42.2017 -83.3583 82° East 166 191 1,100  Level Cleveland Center
10:28PM 42.1244 -83.3547 178° South 223 257 3,800 1,920 Climbing Cleveland Center
10:29PM 42.0867 -83.2833 125° Southeast 274 315 5,800 2,100 Climbing Cleveland Center
10:29PM 42.1094 -83.1919 71° East 285 328 7,900 2,100 Climbing Cleveland Center
10:30PM 42.3167 -82.7493 82° East  Level FlightAware Approximate
10:30PM 42.1364 -83.1089 66° East 293 337 9,800  Level Cleveland Center
10:31PM 42.3321 -82.5952 82° East  Level FlightAware Approximate
10:31PM 42.1742 -83.0011 65° Northeast 298 343 11,000  Level Cleveland Center
10:32PM 42.2142 -82.8850 65° Northeast 312 359 12,900 1,800 Climbing Cleveland Center
10:33PM 42.2558 -82.7742 63° Northeast 324 373 14,600 1,500 Climbing Cleveland Center
10:34PM 42.2978 -82.6519 65° Northeast 337 388 16,000 1,380 Climbing Cleveland Center
10:35PM 42.3417 -82.5272 65° Northeast 352 405 17,400 960 Climbing Cleveland Center
10:36PM 42.3647 -82.3928 77° East 357 411 18,000 300 Climbing Cleveland Center
10:37PM 42.3583 -82.2578 94° East 357 411 18,000 300 Level Cleveland Center
10:38PM 42.3542 -82.1031 92° East 363 418 18,600 540 Climbing Cleveland Center
10:39PM 42.3478 -81.9597 93° East 369 425 19,100 480 Climbing Cleveland Center
10:40PM 42.3411 -81.8050 93° East 387 445 19,600 480 Climbing Cleveland Center
10:42PM 42.3250 -81.5128 94° East 419 482 20,600 480 Climbing Cleveland Center
10:43PM 42.3181 -81.3525 93° East 424 488 21,100 540 Climbing Cleveland Center
10:44PM 42.3106 -81.1925 94° East 424 488 21,700 600 Climbing Cleveland Center
10:45PM 42.3072 -81.0294 92° East 424 488 22,400 660 Climbing Cleveland Center
10:46PM 42.3203 -80.8528 84° East 424 488 23,100 720 Climbing Cleveland Center
10:47PM 42.3392 -80.6900 81° East 431 496 23,900 720 Climbing Cleveland Center
10:48PM 42.3519 -80.5269 84° East 431 496 24,600 600 Climbing Cleveland Center
10:49PM 42.3661 -80.3639 83° East 439 505 25,200 540 Climbing Cleveland Center
10:50PM 42.3803 -80.1953 83° East 445 512 25,700 480 Climbing Cleveland Center
10:51PM 42.3964 -80.0322 82° East 438 504 26,200 480 Climbing Cleveland Center
10:52PM 42.4100 -79.8633 84° East 443 510 26,700 480 Climbing Cleveland Center
10:53PM 42.4236 -79.6972 84° East 443 510 27,200 480 Climbing Cleveland Center
10:54PM 42.4367 -79.5311 84° East 443 510 27,700 480 Climbing Cleveland Center
10:55PM 42.4497 -79.3619 84° East 443 510 28,200 480 Climbing Cleveland Center
10:56PM 42.4644 -79.1900 83° East 449 517 28,700 360 Climbing Cleveland Center
10:57PM 42.4789 -79.0208 83° East 449 517 29,000 120 Climbing Cleveland Center
10:58PM 42.4908 -78.8458 85° East 449 517 29,000  Level Cleveland Center
10:59PM 42.5047 -78.6708 84° East 454 522 29,000  Level Cleveland Center
11:00PM 42.5164 -78.4958 85° East 464 534 29,000  Level Cleveland Center
11:01PM 42.5275 -78.3181 85° East 469 540 29,000  Level Cleveland Center
11:02PM 42.5406 -78.1372 84° East 469 540 29,000  Level Cleveland Center
11:03PM 42.5514 -77.9619 85° East 469 540 29,000  Level Cleveland Center
11:04PM 42.5622 -77.8036 85° East 469 540 29,000  Level Cleveland Center
11:05PM 42.5725 -77.6256 85° East 469 540 29,000  Level Cleveland Center
11:07PM 42.5925 -77.2947 85° East 495 570 29,000  Level Boston Center
11:08PM 42.6042 -77.1206 85° East 480 552 29,000 -420 Level Boston Center
11:09PM 42.6133 -76.9464 86° East 472 543 28,200 -1,140 Descending Boston Center
11:10PM 42.6242 -76.7750 85° East 462 532 26,800 -1,440 Descending Boston Center
11:11PM 42.6325 -76.6033 86° East 457 526 25,400 -960 Descending Boston Center
11:12PM 42.6406 -76.4372 86° East 452 520 25,000 -240 Descending Boston Center
11:13PM 42.6508 -76.2656 85° East 452 520 25,000  Level Boston Center
11:14PM 42.6603 -76.1022 85° East 446 513 25,000 -600 Level Boston Center
11:15PM 42.6678 -75.9333 86° East 441 507 23,900 -1,440 Descending Boston Center
11:16PM 42.6722 -75.7811 88° East 441 507 22,200 -1,740 Descending Boston Center
11:17PM 42.6789 -75.6233 87° East 434 499 20,500 -1,680 Descending Boston Center
11:18PM 42.6872 -75.4711 86° East 420 483 18,900 -1,500 Descending Boston Center
11:19PM 42.6953 -75.3217 86° East 401 461 17,600 -1,440 Descending Boston Center
11:20PM 42.7011 -75.1722 87° East 396 456 16,100 -1,500 Descending Boston Center
11:21PM 42.7064 -75.0311 87° East 390 449 14,600 -1,380 Descending Boston Center
11:22PM 42.7117 -74.8928 87° East 374 430 13,400 -1,200 Descending Boston Center
11:23PM 42.7169 -74.7347 87° East 369 425 12,300 -1,080 Descending Boston Center
11:24PM 42.7217 -74.5964 87° East 363 418 11,300 -660 Descending Boston Center
11:25PM 42.7267 -74.4497 87° East 370 426 11,000 -540 Descending Boston Center
11:26PM 42.7056 -74.3331 104° East 331 381 10,300 -1,080 Descending Boston Center
11:27PM 42.6675 -74.2331 117° Southeast 304 350 8,900 -1,500 Descending Boston Center
11:28PM 42.6317 -74.1333 116° Southeast 297 342 7,300 -1,680 Descending Boston Center
11:29PM 42.6156 -74.0906 117° Southeast 287 330 6,400 -1,680 Descending Boston Center
11:30PM 42.5836 -73.9967 115° Southeast 267 307 4,800 -1,620 Descending Boston Center
11:31PM 42.5703 -73.9033 101° East 253 291 3,200 -1,320 Descending Boston Center
11:32PM 42.6064 -73.8419 51° Northeast 209 241 2,200 -660 Descending Boston Center
11:33PM 42.6528 -73.8036 31° Northeast 169 194 1,900 -540 Descending Boston Center
11:34PM 42.6922 -73.8072 356° North 136 157 1,200 -720 Descending Boston Center